createdAt,value
2019-06-04T00:02:20.170Z,83.92
2019-06-04T00:05:15.668Z,84.00
2019-06-04T00:08:12.948Z,84.58
2019-06-04T00:11:08.486Z,85.21
2019-06-04T00:14:05.029Z,85.62
2019-06-04T00:17:03.344Z,86.42
2019-06-04T00:19:59.145Z,87.43
2019-06-04T00:22:56.404Z,87.73
2019-06-04T00:25:51.033Z,87.92
2019-06-04T00:28:49.115Z,88.27
2019-06-04T00:31:45.878Z,89.22
2019-06-04T00:34:42.440Z,88.78
2019-06-04T00:37:39.053Z,89.15
2019-06-04T00:40:34.463Z,90.13
2019-06-04T00:43:31.236Z,90.11
2019-06-04T00:46:26.852Z,90.24
2019-06-04T00:49:24.296Z,90.19
2019-06-04T00:52:19.147Z,90.49
2019-06-04T00:55:28.228Z,90.40
2019-06-04T00:58:24.458Z,90.05
2019-06-04T01:01:20.755Z,89.73
2019-06-04T01:04:17.362Z,90.66
2019-06-04T01:07:13.351Z,90.77
2019-06-04T01:10:10.095Z,90.94
2019-06-04T01:13:09.855Z,90.64
2019-06-04T01:16:04.283Z,90.19
2019-06-04T01:19:00.597Z,90.52
2019-06-04T01:21:55.713Z,89.98
2019-06-04T01:24:52.139Z,90.39
2019-06-04T01:27:48.620Z,91.86
2019-06-04T01:30:45.343Z,92.21
2019-06-04T01:33:42.110Z,91.99
2019-06-04T01:36:37.851Z,92.13
2019-06-04T01:39:35.082Z,92.05
2019-06-04T01:42:31.851Z,92.57
2019-06-04T01:45:28.606Z,93.00
2019-06-04T01:48:25.356Z,93.52
2019-06-04T01:51:21.343Z,93.83
2019-06-04T01:54:17.881Z,94.22
2019-06-04T01:57:13.132Z,95.08
2019-06-04T02:00:29.607Z,95.46
2019-06-04T02:03:07.520Z,95.73
2019-06-04T02:06:03.827Z,96.07
2019-06-04T02:09:00.290Z,96.32
2019-06-04T02:11:55.846Z,96.70
2019-06-04T02:14:52.437Z,97.24
2019-06-04T02:17:48.147Z,97.51
2019-06-04T02:20:45.976Z,98.18
2019-06-04T02:23:41.909Z,97.88
2019-06-04T02:26:38.833Z,97.69
2019-06-04T02:29:35.596Z,97.77
2019-06-04T02:33:00.923Z,98.42
2019-06-04T02:35:29.816Z,98.40
2019-06-04T02:38:29.717Z,98.97
2019-06-04T02:41:25.940Z,99.18
2019-06-04T02:44:21.508Z,99.30
2019-06-04T02:47:18.909Z,99.42
2019-06-04T02:50:16.362Z,99.97
2019-06-04T02:53:11.890Z,100.00
2019-06-04T02:56:08.030Z,99.88
2019-06-04T02:59:02.904Z,100.00
2019-06-04T03:01:59.458Z,100.00
2019-06-04T03:04:54.967Z,100.00
2019-06-04T03:07:51.571Z,100.00
2019-06-04T03:10:48.097Z,100.00
2019-06-04T03:13:44.680Z,100.00
2019-06-04T03:16:42.359Z,100.00
2019-06-04T03:19:38.076Z,100.00
2019-06-04T03:22:34.585Z,100.00
2019-06-04T03:25:29.951Z,100.00
2019-06-04T03:28:26.596Z,100.00
2019-06-04T03:31:25.955Z,100.00
2019-06-04T03:34:23.807Z,100.00
2019-06-04T03:37:16.903Z,100.00
2019-06-04T03:40:13.648Z,100.00
2019-06-04T03:43:09.153Z,100.00
2019-06-04T03:46:07.133Z,100.00
2019-06-04T03:49:03.287Z,100.00
2019-06-04T03:51:59.831Z,100.00
2019-06-04T03:54:56.637Z,100.00
2019-06-04T03:57:52.437Z,100.00
2019-06-04T04:00:48.995Z,100.00
2019-06-04T04:03:44.237Z,100.00
2019-06-04T04:06:40.903Z,100.00
2019-06-04T04:09:37.213Z,100.00
2019-06-04T04:12:33.834Z,100.00
2019-06-04T04:15:32.284Z,100.00
2019-06-04T04:18:29.469Z,100.00
2019-06-04T04:21:27.183Z,100.00
2019-06-04T04:24:22.955Z,100.00
2019-06-04T04:27:19.791Z,100.00
2019-06-04T04:30:16.735Z,100.00
2019-06-04T04:33:11.189Z,100.00
2019-06-04T04:36:08.991Z,100.00
2019-06-04T04:39:03.927Z,100.00
2019-06-04T04:42:01.679Z,100.00
2019-06-04T04:44:57.513Z,100.00
2019-06-04T04:47:54.065Z,100.00
2019-06-04T04:50:49.725Z,100.00
2019-06-04T04:53:46.248Z,100.00
2019-06-04T04:56:42.203Z,100.00
2019-06-04T04:59:38.102Z,100.00
2019-06-04T05:02:35.929Z,100.00
2019-06-04T05:05:31.415Z,100.00
2019-06-04T05:08:32.176Z,100.00
2019-06-04T05:11:28.966Z,100.00
2019-06-04T05:14:24.825Z,100.00
2019-06-04T05:17:23.231Z,100.00
2019-06-04T05:20:17.347Z,100.00
2019-06-04T05:23:13.893Z,100.00
2019-06-04T05:26:09.991Z,100.00
2019-06-04T05:29:06.419Z,100.00
2019-06-04T05:32:03.120Z,100.00
2019-06-04T05:35:04.346Z,100.00
2019-06-04T05:37:57.132Z,100.00
2019-06-04T05:40:55.893Z,100.00
2019-06-04T05:43:52.463Z,100.00
2019-06-04T05:46:51.576Z,100.00
2019-06-04T05:49:47.495Z,100.00
2019-06-04T05:52:45.265Z,100.00
2019-06-04T05:55:41.131Z,100.00
2019-06-04T05:58:37.178Z,100.00
2019-06-04T06:01:35.916Z,100.00
2019-06-04T06:04:29.706Z,100.00
2019-06-04T06:07:27.852Z,100.00
2019-06-04T06:10:21.669Z,100.00
2019-06-04T06:13:18.747Z,100.00
2019-06-04T06:16:15.377Z,100.00
2019-06-04T06:19:12.202Z,100.00
2019-06-04T06:22:08.654Z,100.00
2019-06-04T06:25:04.647Z,100.00
2019-06-04T06:28:01.219Z,100.00
2019-06-04T06:30:58.224Z,100.00
2019-06-04T06:33:56.048Z,100.00
2019-06-04T06:36:52.690Z,100.00
2019-06-04T06:39:50.421Z,100.00
2019-06-04T06:42:46.257Z,97.71
2019-06-04T06:45:42.815Z,95.51
2019-06-04T06:48:39.681Z,95.89
2019-06-04T06:51:35.541Z,95.66
2019-06-04T06:54:36.538Z,93.56
2019-06-04T06:57:30.323Z,90.83
2019-06-04T07:00:25.436Z,91.02
2019-06-04T07:03:22.841Z,91.78
2019-06-04T07:06:20.716Z,92.14
2019-06-04T07:09:16.643Z,90.20
2019-06-04T07:12:16.351Z,90.35
2019-06-04T07:15:13.351Z,87.68
2019-06-04T07:18:09.969Z,87.29
2019-06-04T07:21:06.763Z,88.62
2019-06-04T07:24:02.481Z,88.24
2019-06-04T07:27:00.055Z,86.77
2019-06-04T07:29:55.873Z,87.14
2019-06-04T07:32:52.267Z,85.53
2019-06-04T07:35:47.868Z,86.63
2019-06-04T07:38:44.472Z,80.87
2019-06-04T07:41:42.921Z,76.98
2019-06-04T07:44:41.001Z,73.58
2019-06-04T07:47:36.056Z,71.47
2019-06-04T07:50:33.781Z,67.13
2019-06-04T07:53:28.400Z,68.83
2019-06-04T07:56:26.419Z,69.38
2019-06-04T07:59:22.222Z,68.88
2019-06-04T08:02:20.190Z,69.50
2019-06-04T08:05:17.986Z,67.01
2019-06-04T08:08:13.084Z,67.28
2019-06-04T08:11:09.428Z,66.85
2019-06-04T08:14:05.712Z,69.82
2019-06-04T08:17:03.557Z,67.84
2019-06-04T08:19:59.377Z,67.66
2019-06-04T08:22:55.359Z,66.93
2019-06-04T08:25:50.913Z,63.00
2019-06-04T08:28:47.612Z,64.32
2019-06-04T08:31:45.634Z,64.13
2019-06-04T08:34:42.361Z,61.93
2019-06-04T08:37:38.809Z,62.86
2019-06-04T08:40:33.396Z,62.96
2019-06-04T08:43:32.120Z,63.91
2019-06-04T08:46:27.281Z,64.10
2019-06-04T08:49:24.249Z,65.09
2019-06-04T08:52:20.994Z,65.50
2019-06-04T08:55:17.658Z,65.78
2019-06-04T08:58:14.630Z,66.06
2019-06-04T09:01:10.431Z,65.81
2019-06-04T09:04:07.116Z,65.31
2019-06-04T09:07:02.817Z,64.87
2019-06-04T09:10:05.098Z,64.50
2019-06-04T09:12:56.219Z,65.40
2019-06-04T09:15:55.968Z,63.79
2019-06-04T09:18:50.749Z,63.29
2019-06-04T09:21:47.618Z,65.25
2019-06-04T09:24:53.298Z,62.82
2019-06-04T09:27:47.211Z,63.58
2019-06-04T09:30:51.401Z,64.41
2019-06-04T09:33:41.337Z,63.62
2019-06-04T09:36:37.028Z,64.65
2019-06-04T09:39:33.705Z,63.53
2019-06-04T09:42:29.538Z,63.88
2019-06-04T09:45:27.312Z,64.66
2019-06-04T09:48:24.333Z,63.35
2019-06-04T09:51:19.767Z,62.97
2019-06-04T09:54:16.368Z,62.80
2019-06-04T09:57:12.116Z,63.06
2019-06-04T10:00:08.808Z,63.33
2019-06-04T10:03:04.855Z,60.29
2019-06-04T10:06:01.475Z,63.50
2019-06-04T10:08:58.155Z,62.83
2019-06-04T10:11:53.938Z,61.80
2019-06-04T10:14:50.862Z,61.37
2019-06-04T10:17:47.701Z,61.22
2019-06-04T10:20:46.053Z,60.82
2019-06-04T10:23:40.880Z,62.05
2019-06-04T10:26:37.091Z,59.19
2019-06-04T10:29:33.651Z,59.68
2019-06-04T10:32:29.329Z,60.68
2019-06-04T10:35:25.916Z,59.96
2019-06-04T10:38:28.390Z,60.77
2019-06-04T10:41:18.075Z,58.33
2019-06-04T10:44:14.740Z,61.48
2019-06-04T10:47:11.563Z,60.56
2019-06-04T10:50:08.678Z,59.75
2019-06-04T10:53:04.527Z,59.76
2019-06-04T10:56:01.085Z,58.28
2019-06-04T10:58:56.811Z,56.78
2019-06-04T11:01:54.021Z,58.32
2019-06-04T11:04:50.207Z,53.86
2019-06-04T11:07:48.162Z,54.28
2019-06-04T11:10:45.190Z,56.73
2019-06-04T11:13:41.703Z,54.27
2019-06-04T11:16:37.846Z,54.07
2019-06-04T11:19:33.748Z,54.09
2019-06-04T11:22:29.569Z,54.90
2019-06-04T11:25:25.215Z,53.80
2019-06-04T11:28:21.738Z,54.77
2019-06-04T11:31:17.312Z,54.25
2019-06-04T11:34:24.260Z,54.10
2019-06-04T11:37:10.514Z,54.79
2019-06-04T11:40:09.780Z,56.92
2019-06-04T11:43:11.668Z,54.21
2019-06-04T11:46:06.131Z,52.10
2019-06-04T11:49:04.100Z,49.50
2019-06-04T11:52:01.859Z,51.52
2019-06-04T11:54:59.950Z,49.88
2019-06-04T11:57:55.695Z,50.02
2019-06-04T12:01:16.517Z,50.62
2019-06-04T12:04:03.377Z,49.83
2019-06-04T12:06:58.965Z,49.29
2019-06-04T12:09:57.038Z,49.46
2019-06-04T12:12:52.918Z,46.76
2019-06-04T12:15:49.546Z,48.64
2019-06-04T12:18:47.524Z,49.66
2019-06-04T12:21:45.162Z,44.79
2019-06-04T12:24:42.068Z,46.88
2019-06-04T12:27:38.751Z,46.07
2019-06-04T12:30:35.350Z,47.45
2019-06-04T12:33:31.123Z,46.03
2019-06-04T12:36:27.792Z,45.49
2019-06-04T12:39:25.657Z,46.19
2019-06-04T12:42:21.800Z,45.62
2019-06-04T12:45:18.667Z,43.87
2019-06-04T12:48:16.255Z,45.81
2019-06-04T12:51:13.515Z,41.22
2019-06-04T12:54:10.309Z,41.64
2019-06-04T12:57:05.964Z,41.24
2019-06-04T13:00:04.607Z,42.28
2019-06-04T13:02:59.101Z,41.77
2019-06-04T13:05:55.301Z,41.46
2019-06-04T13:08:53.341Z,42.09
2019-06-04T13:11:50.089Z,41.66
2019-06-04T13:14:46.751Z,38.38
2019-06-04T13:17:42.886Z,39.05
2019-06-04T13:20:39.844Z,41.24
2019-06-04T13:23:36.714Z,42.62
2019-06-04T13:26:33.461Z,39.27
2019-06-04T13:29:44.302Z,37.73
2019-06-04T13:32:26.719Z,37.99
2019-06-04T13:35:23.178Z,39.10
2019-06-04T13:38:19.961Z,38.28
2019-06-04T13:41:16.546Z,35.38
2019-06-04T13:44:12.371Z,35.88
2019-06-04T13:47:09.805Z,35.33
2019-06-04T13:50:07.704Z,31.69
2019-06-04T13:53:06.222Z,34.18
2019-06-04T13:55:59.753Z,35.49
2019-06-04T13:58:54.942Z,34.98
2019-06-04T14:01:51.673Z,34.48
2019-06-04T14:04:48.334Z,33.57
2019-06-04T14:07:43.903Z,34.19
2019-06-04T14:10:50.066Z,33.19
2019-06-04T14:13:36.949Z,35.72
2019-06-04T14:16:34.763Z,32.96
2019-06-04T14:19:31.638Z,33.24
2019-06-04T14:22:28.291Z,32.12
2019-06-04T14:25:37.417Z,33.41
2019-06-04T14:28:34.521Z,31.43
2019-06-04T14:31:30.465Z,31.18
2019-06-04T14:34:27.148Z,30.42
2019-06-04T14:37:22.764Z,31.06
2019-06-04T14:40:32.153Z,30.48
2019-06-04T14:43:16.496Z,28.72
2019-06-04T14:46:13.702Z,29.75
2019-06-04T14:49:09.871Z,29.43
2019-06-04T14:52:05.863Z,30.42
2019-06-04T14:55:03.591Z,28.12
2019-06-04T14:57:59.296Z,28.61
2019-06-04T15:00:56.168Z,28.33
2019-06-04T15:03:52.062Z,29.20
2019-06-04T15:06:49.096Z,28.13
2019-06-04T15:09:46.076Z,29.14
2019-06-04T15:12:44.071Z,28.90
2019-06-04T15:15:40.964Z,28.67
2019-06-04T15:18:37.628Z,28.70
2019-06-04T15:21:35.360Z,29.67
2019-06-04T15:24:30.619Z,28.56
2019-06-04T15:27:27.546Z,29.22
2019-06-04T15:30:24.983Z,28.83
2019-06-04T15:33:22.319Z,30.49
2019-06-04T15:36:26.055Z,30.97
2019-06-04T15:39:18.707Z,29.78
2019-06-04T15:42:16.993Z,28.15
2019-06-04T15:45:18.462Z,28.83
2019-06-04T15:48:09.504Z,28.14
2019-06-04T15:51:06.326Z,28.95
2019-06-04T15:54:03.403Z,27.88
2019-06-04T15:57:00.308Z,28.25
2019-06-04T16:00:05.041Z,28.03
2019-06-04T16:03:02.918Z,28.92
2019-06-04T16:05:59.565Z,29.38
2019-06-04T16:08:58.300Z,28.50
2019-06-04T16:12:07.142Z,28.85
2019-06-04T16:14:52.326Z,28.65
2019-06-04T16:17:47.758Z,29.68
2019-06-04T16:21:01.519Z,29.52
2019-06-04T16:23:59.547Z,30.19
2019-06-04T16:26:55.287Z,30.66
2019-06-04T16:29:52.108Z,30.81
2019-06-04T16:32:47.865Z,31.17
2019-06-04T16:35:45.765Z,31.26
2019-06-04T16:38:41.639Z,30.98
2019-06-04T16:41:39.381Z,31.65
2019-06-04T16:44:36.331Z,32.64
2019-06-04T16:47:33.277Z,33.69
2019-06-04T16:50:29.264Z,33.63
2019-06-04T16:53:25.357Z,33.91
2019-06-04T16:56:21.207Z,34.32
2019-06-04T16:59:17.589Z,35.38
2019-06-04T17:02:15.689Z,35.45
2019-06-04T17:05:11.385Z,35.64
2019-06-04T17:08:08.478Z,35.98
2019-06-04T17:11:06.052Z,36.48
2019-06-04T17:14:04.212Z,36.31
2019-06-04T17:17:01.980Z,36.59
2019-06-04T17:19:57.794Z,38.02
2019-06-04T17:22:55.590Z,37.65
2019-06-04T17:25:52.381Z,38.64
2019-06-04T17:28:47.624Z,39.21
2019-06-04T17:31:44.404Z,39.15
2019-06-04T17:34:40.323Z,40.38
2019-06-04T17:37:37.827Z,40.64
2019-06-04T17:40:34.624Z,41.38
2019-06-04T17:43:31.969Z,42.13
2019-06-04T17:46:29.883Z,42.34
2019-06-04T17:49:23.897Z,42.71
2019-06-04T17:52:20.671Z,42.74
2019-06-04T17:55:16.439Z,42.69
2019-06-04T17:58:13.341Z,42.62
2019-06-04T18:01:09.129Z,42.41
2019-06-04T18:04:06.948Z,43.00
2019-06-04T18:07:03.540Z,43.06
2019-06-04T18:10:00.386Z,43.26
2019-06-04T18:12:58.371Z,43.96
2019-06-04T18:15:52.871Z,43.96
2019-06-04T18:18:49.902Z,43.92
2019-06-04T18:21:51.091Z,43.98
2019-06-04T18:24:42.354Z,44.05
2019-06-04T18:27:40.685Z,43.77
2019-06-04T18:30:39.450Z,44.21
2019-06-04T18:33:37.788Z,44.35
2019-06-04T18:36:34.749Z,44.08
2019-06-04T18:39:34.646Z,44.44
2019-06-04T18:42:32.411Z,44.56
2019-06-04T18:45:28.785Z,44.68
2019-06-04T18:48:25.596Z,45.12
2019-06-04T18:51:29.002Z,44.69
2019-06-04T18:54:25.757Z,44.94
2019-06-04T18:57:23.204Z,45.25
2019-06-04T19:00:20.473Z,45.64
2019-06-04T19:03:17.213Z,45.52
2019-06-04T19:06:16.412Z,45.47
2019-06-04T19:09:13.327Z,45.86
2019-06-04T19:12:15.638Z,46.83
2019-06-04T19:15:13.990Z,48.33
2019-06-04T19:18:11.461Z,48.86
2019-06-04T19:21:09.703Z,48.28
2019-06-04T19:24:09.153Z,48.53
2019-06-04T19:27:05.622Z,48.85
2019-06-04T19:30:03.561Z,49.24
2019-06-04T19:33:07.112Z,50.62
2019-06-04T19:36:04.556Z,49.64
2019-06-04T19:39:02.174Z,49.82
2019-06-04T19:41:58.685Z,50.23
2019-06-04T19:44:58.427Z,50.75
2019-06-04T19:47:54.677Z,53.21
2019-06-04T19:50:51.976Z,53.99
2019-06-04T19:53:49.935Z,54.93
2019-06-04T19:56:46.465Z,56.06
2019-06-04T19:59:43.829Z,57.67
2019-06-04T20:02:43.921Z,59.24
2019-06-04T20:05:52.102Z,60.85
2019-06-04T20:08:38.537Z,61.78
2019-06-04T20:11:34.764Z,63.01
2019-06-04T20:17:28.327Z,64.42
2019-06-04T20:19:00.702Z,63.80
2019-06-04T20:20:29.312Z,64.72
2019-06-04T20:23:25.159Z,65.50
2019-06-04T20:26:40.337Z,66.42
2019-06-04T20:29:36.018Z,67.65
2019-06-04T20:32:32.000Z,68.89
2019-06-04T20:35:28.855Z,70.02
2019-06-04T20:38:24.422Z,70.82
2019-06-04T20:41:20.346Z,71.95
2019-06-04T20:44:24.486Z,71.07
2019-06-04T20:47:20.141Z,71.20
2019-06-04T20:50:16.259Z,71.52
2019-06-04T20:53:12.185Z,71.22
2019-06-04T20:56:08.946Z,71.79
2019-06-04T20:59:04.969Z,71.79
2019-06-04T21:02:07.089Z,72.13
2019-06-04T21:05:19.305Z,72.51
2019-06-04T21:08:15.724Z,73.00
2019-06-04T21:11:12.183Z,72.36
2019-06-04T21:14:08.145Z,72.95
2019-06-04T21:17:05.097Z,73.98
2019-06-04T21:20:01.975Z,74.88
2019-06-04T21:22:57.772Z,75.65
2019-06-04T21:25:55.354Z,76.18
2019-06-04T21:29:01.120Z,76.30
2019-06-04T21:31:58.876Z,77.19
2019-06-04T21:34:55.294Z,77.32
2019-06-04T21:37:52.292Z,78.27
2019-06-04T21:40:50.480Z,78.45
2019-06-04T21:43:46.017Z,79.53
2019-06-04T21:46:43.017Z,80.56
2019-06-04T21:49:38.714Z,80.95
2019-06-04T21:52:35.586Z,80.40
2019-06-04T21:55:32.289Z,80.38
2019-06-04T21:58:28.088Z,80.70
2019-06-04T22:01:25.027Z,80.94
2019-06-04T22:04:21.721Z,81.03
2019-06-04T22:07:19.699Z,81.56
2019-06-04T22:10:16.103Z,81.65
2019-06-04T22:13:12.953Z,81.55
2019-06-04T22:16:10.928Z,81.38
2019-06-04T22:19:06.639Z,81.09
2019-06-04T22:22:02.369Z,81.46
2019-06-04T22:25:00.435Z,81.89
2019-06-04T22:27:55.189Z,81.33
2019-06-04T22:30:54.437Z,80.71
2019-06-04T22:33:51.264Z,80.71
2019-06-04T22:36:46.802Z,81.02
2019-06-04T22:39:44.099Z,81.09
2019-06-04T22:42:39.728Z,81.76
2019-06-04T22:45:36.171Z,82.72
2019-06-04T22:48:31.974Z,83.26
2019-06-04T22:51:28.760Z,83.57
2019-06-04T22:54:24.915Z,84.47
2019-06-04T22:57:21.539Z,84.15
2019-06-04T23:00:18.218Z,83.68
2019-06-04T23:03:14.070Z,83.02
2019-06-04T23:06:09.914Z,83.01
2019-06-04T23:09:06.115Z,82.81
2019-06-04T23:12:03.755Z,82.27
2019-06-04T23:15:00.117Z,82.68
2019-06-04T23:17:57.359Z,82.61
2019-06-04T23:20:53.628Z,83.16
2019-06-04T23:23:49.198Z,83.17
2019-06-04T23:26:47.103Z,83.53
2019-06-04T23:29:43.629Z,83.98
2019-06-04T23:32:40.203Z,84.82
2019-06-04T23:35:35.446Z,85.48
2019-06-04T23:38:33.321Z,85.82
2019-06-04T23:41:29.028Z,86.24
2019-06-04T23:44:25.861Z,86.16
2019-06-04T23:47:22.666Z,86.46
2019-06-04T23:50:19.237Z,86.79
2019-06-04T23:53:14.896Z,85.59
2019-06-04T23:56:11.626Z,84.68
2019-06-04T23:59:10.569Z,85.04
